sensor_id;sensor_type;location;lat;lon;timestamp;pressure;altitude;pressure_sealevel;temperature;humidity
41886;BME280;27567;43.084;25.616;2023-05-10T00:01:29;98702.47;;;8.68;100.00
41886;BME280;27567;43.084;25.616;2023-05-10T00:04:13;98698.06;;;8.52;100.00
41886;BME280;27567;43.084;25.616;2023-05-10T00:06:57;98700.41;;;8.47;100.00
41886;BME280;27567;43.084;25.616;2023-05-10T00:09:41;98696.06;;;8.54;100.00
41886;BME280;27567;43.084;25.616;2023-05-10T00:12:25;98699.50;;;8.63;100.00
41886;BME280;27567;43.084;25.616;2023-05-10T00:15:09;98690.47;;;8.64;100.00
41886;BME280;27567;43.084;25.616;2023-05-10T00:17:53;98689.66;;;8.79;100.00
41886;BME280;27567;43.084;25.616;2023-05-10T00:20:37;98686.22;;;8.70;100.00
41886;BME280;27567;43.084;25.616;2023-05-10T00:23:21;98684.34;;;8.55;100.00
41886;BME280;27567;43.084;25.616;2023-05-10T00:26:05;98685.56;;;8.68;100.00
41886;BME280;27567;43.084;25.616;2023-05-10T00:28:49;98681.44;;;8.65;100.00
41886;BME280;27567;43.084;25.616;2023-05-10T00:31:33;98684.66;;;8.61;100.00
41886;BME280;27567;43.084;25.616;2023-05-10T00:34:17;98666.66;;;8.54;100.00
41886;BME280;27567;43.084;25.616;2023-05-10T00:37:01;98673.78;;;8.62;100.00
41886;BME280;27567;43.084;25.616;2023-05-10T00:39:45;98676.72;;;8.44;100.00
41886;BME280;27567;43.084;25.616;2023-05-10T00:42:30;98678.88;;;8.25;100.00
41886;BME280;27567;43.084;25.616;2023-05-10T00:45:13;98684.88;;;8.27;100.00
41886;BME280;27567;43.084;25.616;2023-05-10T00:47:59;98672.53;;;8.26;100.00
41886;BME280;27567;43.084;25.616;2023-05-10T00:50:45;98676.47;;;8.07;100.00
41886;BME280;27567;43.084;25.616;2023-05-10T00:53:31;98666.41;;;7.94;100.00
41886;BME280;27567;43.084;25.616;2023-05-10T00:56:16;98667.91;;;7.97;100.00
41886;BME280;27567;43.084;25.616;2023-05-10T00:59:01;98662.78;;;7.87;100.00
41886;BME280;27567;43.084;25.616;2023-05-10T01:01:46;98670.16;;;7.77;100.00
41886;BME280;27567;43.084;25.616;2023-05-10T01:04:30;98660.03;;;7.95;100.00
41886;BME280;27567;43.084;25.616;2023-05-10T01:07:15;98665.44;;;7.87;100.00
41886;BME280;27567;43.084;25.616;2023-05-10T01:09:59;98660.34;;;7.77;100.00
41886;BME280;27567;43.084;25.616;2023-05-10T01:12:46;98661.00;;;7.79;100.00
41886;BME280;27567;43.084;25.616;2023-05-10T01:15:31;98662.13;;;7.85;100.00
41886;BME280;27567;43.084;25.616;2023-05-10T01:18:18;98661.66;;;7.81;100.00
41886;BME280;27567;43.084;25.616;2023-05-10T01:27:00;98657.59;;;7.86;100.00
41886;BME280;27567;43.084;25.616;2023-05-10T01:33:06;98660.50;;;7.76;100.00
41886;BME280;27567;43.084;25.616;2023-05-10T01:36:05;98664.00;;;7.76;100.00
41886;BME280;27567;43.084;25.616;2023-05-10T01:38:55;98660.00;;;7.80;100.00
41886;BME280;27567;43.084;25.616;2023-05-10T01:42:25;98660.16;;;7.79;100.00
41886;BME280;27567;43.084;25.616;2023-05-10T01:45:39;98656.22;;;7.66;100.00
41886;BME280;27567;43.084;25.616;2023-05-10T01:48:26;98648.22;;;7.66;100.00
41886;BME280;27567;43.084;25.616;2023-05-10T01:51:11;98645.59;;;7.58;100.00
41886;BME280;27567;43.084;25.616;2023-05-10T01:54:01;98647.78;;;7.55;100.00
41886;BME280;27567;43.084;25.616;2023-05-10T01:56:52;98650.94;;;7.58;100.00
41886;BME280;27567;43.084;25.616;2023-05-10T01:59:40;98656.34;;;7.42;100.00
41886;BME280;27567;43.084;25.616;2023-05-10T02:02:28;98657.81;;;7.44;100.00
41886;BME280;27567;43.084;25.616;2023-05-10T02:05:14;98653.50;;;7.43;100.00
41886;BME280;27567;43.084;25.616;2023-05-10T02:08:00;98650.22;;;7.33;100.00
41886;BME280;27567;43.084;25.616;2023-05-10T02:10:46;98655.47;;;7.49;100.00
41886;BME280;27567;43.084;25.616;2023-05-10T02:13:34;98649.06;;;7.59;100.00
41886;BME280;27567;43.084;25.616;2023-05-10T02:16:23;98648.88;;;7.69;100.00
41886;BME280;27567;43.084;25.616;2023-05-10T02:19:10;98657.38;;;7.64;100.00
41886;BME280;27567;43.084;25.616;2023-05-10T02:21:56;98646.22;;;7.69;100.00
41886;BME280;27567;43.084;25.616;2023-05-10T02:24:41;98652.28;;;7.54;100.00
41886;BME280;27567;43.084;25.616;2023-05-10T02:27:27;98637.69;;;7.33;100.00
41886;BME280;27567;43.084;25.616;2023-05-10T02:30:12;98627.94;;;7.17;100.00
41886;BME280;27567;43.084;25.616;2023-05-10T02:32:57;98637.38;;;7.28;100.00
41886;BME280;27567;43.084;25.616;2023-05-10T02:35:42;98632.44;;;7.17;100.00
41886;BME280;27567;43.084;25.616;2023-05-10T02:38:27;98638.84;;;6.91;100.00
41886;BME280;27567;43.084;25.616;2023-05-10T02:41:12;98625.00;;;6.87;100.00
41886;BME280;27567;43.084;25.616;2023-05-10T02:43:59;98618.72;;;6.72;100.00
41886;BME280;27567;43.084;25.616;2023-05-10T02:46:45;98614.44;;;6.54;100.00
41886;BME280;27567;43.084;25.616;2023-05-10T02:49:29;98624.28;;;6.45;100.00
41886;BME280;27567;43.084;25.616;2023-05-10T02:52:16;98623.44;;;6.45;100.00
41886;BME280;27567;43.084;25.616;2023-05-10T02:55:04;98618.78;;;6.47;100.00
41886;BME280;27567;43.084;25.616;2023-05-10T02:57:55;98624.94;;;6.31;100.00
41886;BME280;27567;43.084;25.616;2023-05-10T03:00:40;98630.44;;;6.29;100.00
41886;BME280;27567;43.084;25.616;2023-05-10T03:03:24;98633.09;;;6.29;100.00
41886;BME280;27567;43.084;25.616;2023-05-10T03:06:08;98632.94;;;6.23;100.00
41886;BME280;27567;43.084;25.616;2023-05-10T03:08:53;98629.41;;;6.14;100.00
41886;BME280;27567;43.084;25.616;2023-05-10T03:17:57;98643.91;;;6.11;100.00
41886;BME280;27567;43.084;25.616;2023-05-10T03:20:47;98641.59;;;6.16;100.00
41886;BME280;27567;43.084;25.616;2023-05-10T03:26:24;98642.72;;;6.14;100.00
41886;BME280;27567;43.084;25.616;2023-05-10T03:29:11;98645.06;;;6.09;100.00
41886;BME280;27567;43.084;25.616;2023-05-10T03:31:55;98646.06;;;6.16;100.00
41886;BME280;27567;43.084;25.616;2023-05-10T03:34:42;98639.06;;;6.15;100.00
41886;BME280;27567;43.084;25.616;2023-05-10T03:37:29;98636.59;;;6.13;100.00
41886;BME280;27567;43.084;25.616;2023-05-10T03:40:14;98655.25;;;6.22;100.00
41886;BME280;27567;43.084;25.616;2023-05-10T03:42:58;98650.56;;;6.40;100.00
41886;BME280;27567;43.084;25.616;2023-05-10T03:45:43;98658.72;;;6.39;100.00
41886;BME280;27567;43.084;25.616;2023-05-10T03:48:26;98654.91;;;6.41;100.00
41886;BME280;27567;43.084;25.616;2023-05-10T03:51:10;98669.88;;;6.51;100.00
41886;BME280;27567;43.084;25.616;2023-05-10T03:53:55;98665.69;;;6.81;100.00
41886;BME280;27567;43.084;25.616;2023-05-10T03:56:39;98660.66;;;6.86;100.00
41886;BME280;27567;43.084;25.616;2023-05-10T03:59:23;98667.66;;;6.96;100.00
41886;BME280;27567;43.084;25.616;2023-05-10T04:02:07;98662.13;;;7.05;100.00
41886;BME280;27567;43.084;25.616;2023-05-10T04:04:51;98651.78;;;7.02;100.00
41886;BME280;27567;43.084;25.616;2023-05-10T04:07:35;98664.50;;;6.92;100.00
41886;BME280;27567;43.084;25.616;2023-05-10T04:10:19;98661.31;;;6.97;100.00
41886;BME280;27567;43.084;25.616;2023-05-10T04:13:04;98660.50;;;6.96;100.00
41886;BME280;27567;43.084;25.616;2023-05-10T04:15:48;98655.19;;;6.88;100.00
41886;BME280;27567;43.084;25.616;2023-05-10T04:18:32;98657.00;;;6.87;100.00
41886;BME280;27567;43.084;25.616;2023-05-10T04:21:16;98657.47;;;6.99;100.00
41886;BME280;27567;43.084;25.616;2023-05-10T04:24:00;98661.25;;;7.13;100.00
41886;BME280;27567;43.084;25.616;2023-05-10T04:26:44;98657.25;;;7.17;100.00
41886;BME280;27567;43.084;25.616;2023-05-10T04:29:29;98664.25;;;7.27;100.00
41886;BME280;27567;43.084;25.616;2023-05-10T04:32:13;98659.06;;;7.25;100.00
41886;BME280;27567;43.084;25.616;2023-05-10T04:34:57;98663.91;;;7.30;100.00
41886;BME280;27567;43.084;25.616;2023-05-10T04:37:40;98661.03;;;7.40;100.00
41886;BME280;27567;43.084;25.616;2023-05-10T04:40:25;98659.97;;;7.49;100.00
41886;BME280;27567;43.084;25.616;2023-05-10T04:43:09;98655.94;;;7.53;100.00
41886;BME280;27567;43.084;25.616;2023-05-10T04:45:56;98667.59;;;7.60;100.00
41886;BME280;27567;43.084;25.616;2023-05-10T04:48:40;98671.06;;;7.69;100.00
41886;BME280;27567;43.084;25.616;2023-05-10T04:51:24;98661.81;;;7.80;100.00
41886;BME280;27567;43.084;25.616;2023-05-10T04:54:08;98661.53;;;7.98;100.00
41886;BME280;27567;43.084;25.616;2023-05-10T04:56:53;98671.22;;;7.99;100.00
41886;BME280;27567;43.084;25.616;2023-05-10T04:59:37;98666.22;;;8.19;100.00
41886;BME280;27567;43.084;25.616;2023-05-10T05:02:21;98660.59;;;8.37;100.00
41886;BME280;27567;43.084;25.616;2023-05-10T05:05:05;98659.19;;;8.50;100.00
41886;BME280;27567;43.084;25.616;2023-05-10T05:07:50;98671.41;;;8.67;100.00
41886;BME280;27567;43.084;25.616;2023-05-10T05:10:34;98663.00;;;8.70;100.00
41886;BME280;27567;43.084;25.616;2023-05-10T05:13:18;98664.19;;;8.68;100.00
41886;BME280;27567;43.084;25.616;2023-05-10T05:16:03;98665.13;;;8.75;100.00
41886;BME280;27567;43.084;25.616;2023-05-10T05:18:47;98681.38;;;9.03;100.00
41886;BME280;27567;43.084;25.616;2023-05-10T05:21:31;98667.38;;;9.16;100.00
41886;BME280;27567;43.084;25.616;2023-05-10T05:24:16;98677.53;;;9.21;100.00
41886;BME280;27567;43.084;25.616;2023-05-10T05:27:00;98678.84;;;9.10;100.00
41886;BME280;27567;43.084;25.616;2023-05-10T05:29:44;98684.94;;;9.34;100.00
41886;BME280;27567;43.084;25.616;2023-05-10T05:32:28;98679.66;;;9.41;100.00
41886;BME280;27567;43.084;25.616;2023-05-10T05:35:12;98674.94;;;9.43;100.00
41886;BME280;27567;43.084;25.616;2023-05-10T05:37:57;98678.69;;;9.78;100.00
41886;BME280;27567;43.084;25.616;2023-05-10T05:40:40;98682.38;;;9.77;100.00
41886;BME280;27567;43.084;25.616;2023-05-10T05:43:24;98682.13;;;9.94;100.00
41886;BME280;27567;43.084;25.616;2023-05-10T05:46:08;98676.16;;;10.14;100.00
41886;BME280;27567;43.084;25.616;2023-05-10T05:48:52;98689.22;;;10.38;100.00
41886;BME280;27567;43.084;25.616;2023-05-10T05:51:36;98683.34;;;10.28;100.00
41886;BME280;27567;43.084;25.616;2023-05-10T05:54:20;98684.41;;;10.77;100.00
41886;BME280;27567;43.084;25.616;2023-05-10T05:57:04;98684.72;;;10.96;100.00
41886;BME280;27567;43.084;25.616;2023-05-10T05:59:56;98687.25;;;10.97;100.00
41886;BME280;27567;43.084;25.616;2023-05-10T06:02:40;98684.41;;;11.06;100.00
41886;BME280;27567;43.084;25.616;2023-05-10T06:05:24;98686.38;;;11.25;100.00
41886;BME280;27567;43.084;25.616;2023-05-10T06:08:08;98689.38;;;11.44;100.00
41886;BME280;27567;43.084;25.616;2023-05-10T06:10:52;98686.00;;;11.28;100.00
41886;BME280;27567;43.084;25.616;2023-05-10T06:13:36;98690.28;;;11.65;100.00
41886;BME280;27567;43.084;25.616;2023-05-10T06:16:20;98691.03;;;11.45;100.00
41886;BME280;27567;43.084;25.616;2023-05-10T06:19:04;98690.19;;;11.45;100.00
41886;BME280;27567;43.084;25.616;2023-05-10T06:21:48;98683.88;;;11.59;100.00
41886;BME280;27567;43.084;25.616;2023-05-10T06:24:32;98680.81;;;11.69;100.00
41886;BME280;27567;43.084;25.616;2023-05-10T06:27:16;98701.94;;;11.85;100.00
41886;BME280;27567;43.084;25.616;2023-05-10T06:29:59;98695.38;;;11.88;100.00
41886;BME280;27567;43.084;25.616;2023-05-10T06:32:44;98694.34;;;11.96;100.00
41886;BME280;27567;43.084;25.616;2023-05-10T06:35:29;98700.47;;;11.76;100.00
41886;BME280;27567;43.084;25.616;2023-05-10T06:38:12;98702.19;;;11.91;100.00
41886;BME280;27567;43.084;25.616;2023-05-10T06:40:56;98703.31;;;12.10;100.00
41886;BME280;27567;43.084;25.616;2023-05-10T06:43:41;98706.06;;;12.37;100.00
41886;BME280;27567;43.084;25.616;2023-05-10T06:46:27;98704.00;;;12.52;100.00
41886;BME280;27567;43.084;25.616;2023-05-10T06:49:10;98701.53;;;12.51;100.00
41886;BME280;27567;43.084;25.616;2023-05-10T06:51:57;98698.84;;;12.51;100.00
41886;BME280;27567;43.084;25.616;2023-05-10T06:54:41;98699.88;;;12.50;100.00
41886;BME280;27567;43.084;25.616;2023-05-10T06:57:25;98700.69;;;12.90;100.00
41886;BME280;27567;43.084;25.616;2023-05-10T07:00:10;98694.72;;;12.68;100.00
41886;BME280;27567;43.084;25.616;2023-05-10T07:02:54;98697.19;;;12.97;100.00
41886;BME280;27567;43.084;25.616;2023-05-10T07:05:38;98706.50;;;12.81;100.00
41886;BME280;27567;43.084;25.616;2023-05-10T07:08:22;98701.34;;;12.79;100.00
41886;BME280;27567;43.084;25.616;2023-05-10T07:11:06;98699.44;;;12.53;100.00
41886;BME280;27567;43.084;25.616;2023-05-10T07:13:53;98691.38;;;12.39;100.00
41886;BME280;27567;43.084;25.616;2023-05-10T07:16:37;98697.34;;;12.28;100.00
41886;BME280;27567;43.084;25.616;2023-05-10T07:19:21;98696.97;;;12.58;100.00
41886;BME280;27567;43.084;25.616;2023-05-10T07:22:05;98709.81;;;12.62;100.00
41886;BME280;27567;43.084;25.616;2023-05-10T07:24:49;98696.78;;;12.66;100.00
41886;BME280;27567;43.084;25.616;2023-05-10T07:27:33;98701.06;;;13.28;100.00
41886;BME280;27567;43.084;25.616;2023-05-10T07:30:18;98703.09;;;13.39;100.00
41886;BME280;27567;43.084;25.616;2023-05-10T07:33:02;98706.25;;;13.43;100.00
41886;BME280;27567;43.084;25.616;2023-05-10T07:35:46;98708.25;;;13.67;100.00
41886;BME280;27567;43.084;25.616;2023-05-10T07:38:30;98695.78;;;13.73;100.00
41886;BME280;27567;43.084;25.616;2023-05-10T07:41:15;98700.63;;;13.58;100.00
41886;BME280;27567;43.084;25.616;2023-05-10T07:43:59;98688.88;;;13.91;100.00
41886;BME280;27567;43.084;25.616;2023-05-10T07:46:43;98701.13;;;14.25;100.00
41886;BME280;27567;43.084;25.616;2023-05-10T07:49:27;98700.03;;;14.01;100.00
41886;BME280;27567;43.084;25.616;2023-05-10T07:52:11;98704.72;;;14.19;100.00
41886;BME280;27567;43.084;25.616;2023-05-10T07:54:56;98697.06;;;14.16;100.00
41886;BME280;27567;43.084;25.616;2023-05-10T07:57:41;98703.19;;;14.30;100.00
41886;BME280;27567;43.084;25.616;2023-05-10T08:00:26;98697.44;;;14.52;100.00
41886;BME280;27567;43.084;25.616;2023-05-10T08:03:10;98698.28;;;14.20;100.00
41886;BME280;27567;43.084;25.616;2023-05-10T08:05:54;98704.44;;;14.27;100.00
41886;BME280;27567;43.084;25.616;2023-05-10T08:08:38;98705.06;;;14.62;100.00
41886;BME280;27567;43.084;25.616;2023-05-10T08:11:22;98696.28;;;14.66;100.00
41886;BME280;27567;43.084;25.616;2023-05-10T08:14:06;98699.75;;;14.80;100.00
41886;BME280;27567;43.084;25.616;2023-05-10T08:16:50;98697.53;;;14.96;100.00
41886;BME280;27567;43.084;25.616;2023-05-10T08:19:34;98685.94;;;15.14;100.00
41886;BME280;27567;43.084;25.616;2023-05-10T08:22:19;98683.63;;;15.17;100.00
41886;BME280;27567;43.084;25.616;2023-05-10T08:25:03;98689.41;;;15.40;100.00
41886;BME280;27567;43.084;25.616;2023-05-10T08:27:48;98683.19;;;15.58;100.00
41886;BME280;27567;43.084;25.616;2023-05-10T08:30:32;98699.03;;;15.36;100.00
41886;BME280;27567;43.084;25.616;2023-05-10T08:33:17;98686.47;;;15.41;100.00
41886;BME280;27567;43.084;25.616;2023-05-10T08:36:02;98683.84;;;15.53;100.00
41886;BME280;27567;43.084;25.616;2023-05-10T08:38:50;98683.94;;;15.65;100.00
41886;BME280;27567;43.084;25.616;2023-05-10T08:41:37;98670.97;;;15.74;100.00
41886;BME280;27567;43.084;25.616;2023-05-10T08:44:23;98673.56;;;15.81;100.00
41886;BME280;27567;43.084;25.616;2023-05-10T08:47:08;98675.41;;;15.87;100.00
41886;BME280;27567;43.084;25.616;2023-05-10T08:49:54;98673.41;;;15.75;100.00
41886;BME280;27567;43.084;25.616;2023-05-10T08:52:40;98672.31;;;16.14;100.00
41886;BME280;27567;43.084;25.616;2023-05-10T08:55:24;98673.56;;;15.99;100.00
41886;BME280;27567;43.084;25.616;2023-05-10T08:58:09;98672.91;;;15.67;100.00
41886;BME280;27567;43.084;25.616;2023-05-10T09:00:54;98671.09;;;16.28;99.54
41886;BME280;27567;43.084;25.616;2023-05-10T09:03:38;98678.69;;;16.74;100.00
41886;BME280;27567;43.084;25.616;2023-05-10T09:06:23;98658.41;;;15.80;100.00
41886;BME280;27567;43.084;25.616;2023-05-10T09:09:07;98661.19;;;15.91;100.00
41886;BME280;27567;43.084;25.616;2023-05-10T09:11:52;98648.34;;;15.68;100.00
41886;BME280;27567;43.084;25.616;2023-05-10T09:14:37;98659.69;;;15.58;100.00
41886;BME280;27567;43.084;25.616;2023-05-10T09:17:24;98660.50;;;15.96;98.66
41886;BME280;27567;43.084;25.616;2023-05-10T09:20:09;98656.81;;;16.21;100.00
41886;BME280;27567;43.084;25.616;2023-05-10T09:22:53;98655.97;;;16.08;100.00
41886;BME280;27567;43.084;25.616;2023-05-10T09:25:38;98656.00;;;16.20;100.00
41886;BME280;27567;43.084;25.616;2023-05-10T09:28:22;98644.47;;;17.03;90.04
41886;BME280;27567;43.084;25.616;2023-05-10T09:31:06;98645.53;;;17.02;90.86
41886;BME280;27567;43.084;25.616;2023-05-10T09:33:52;98653.78;;;16.95;85.69
41886;BME280;27567;43.084;25.616;2023-05-10T09:36:36;98647.53;;;17.31;89.26
41886;BME280;27567;43.084;25.616;2023-05-10T09:39:30;98627.16;;;17.69;78.91
41886;BME280;27567;43.084;25.616;2023-05-10T09:42:18;98637.81;;;17.47;89.42
41886;BME280;27567;43.084;25.616;2023-05-10T09:45:06;98641.66;;;16.98;94.59
41886;BME280;27567;43.084;25.616;2023-05-10T09:47:51;98643.75;;;16.60;99.45
41886;BME280;27567;43.084;25.616;2023-05-10T09:50:35;98631.25;;;17.42;94.94
41886;BME280;27567;43.084;25.616;2023-05-10T09:53:19;98628.47;;;17.66;82.95
41886;BME280;27567;43.084;25.616;2023-05-10T09:56:03;98625.47;;;17.80;84.90
41886;BME280;27567;43.084;25.616;2023-05-10T09:59:02;98621.44;;;17.82;83.46
41886;BME280;27567;43.084;25.616;2023-05-10T10:01:50;98621.38;;;17.77;78.96
41886;BME280;27567;43.084;25.616;2023-05-10T10:04:39;98614.16;;;18.46;70.65
41886;BME280;27567;43.084;25.616;2023-05-10T10:07:24;98611.69;;;18.96;68.71
41886;BME280;27567;43.084;25.616;2023-05-10T10:10:12;98610.09;;;19.39;70.68
41886;BME280;27567;43.084;25.616;2023-05-10T10:12:56;98606.72;;;18.92;78.88
41886;BME280;27567;43.084;25.616;2023-05-10T10:15:40;98616.09;;;18.62;75.03
41886;BME280;27567;43.084;25.616;2023-05-10T10:18:26;98602.84;;;20.92;58.20
41886;BME280;27567;43.084;25.616;2023-05-10T10:21:13;98614.28;;;19.47;57.39
41886;BME280;27567;43.084;25.616;2023-05-10T10:23:58;98611.88;;;20.27;56.61
41886;BME280;27567;43.084;25.616;2023-05-10T10:26:42;98611.19;;;20.42;54.01
41886;BME280;27567;43.084;25.616;2023-05-10T10:29:38;98608.25;;;19.67;57.80
41886;BME280;27567;43.084;25.616;2023-05-10T10:35:28;98602.16;;;20.37;58.60
41886;BME280;27567;43.084;25.616;2023-05-10T10:38:13;98581.78;;;25.89;39.42
41886;BME280;27567;43.084;25.616;2023-05-10T10:41:11;98579.84;;;29.49;30.11
41886;BME280;27567;43.084;25.616;2023-05-10T10:44:33;98569.94;;;27.99;30.92
41886;BME280;27567;43.084;25.616;2023-05-10T10:50:07;98593.06;;;19.93;49.47
41886;BME280;27567;43.084;25.616;2023-05-10T10:53:10;98591.25;;;21.12;45.10
41886;BME280;27567;43.084;25.616;2023-05-10T10:56:10;98587.50;;;22.34;41.16
41886;BME280;27567;43.084;25.616;2023-05-10T10:58:59;98591.16;;;24.96;36.87
41886;BME280;27567;43.084;25.616;2023-05-10T11:01:43;98592.59;;;23.84;41.42
41886;BME280;27567;43.084;25.616;2023-05-10T11:04:27;98591.03;;;22.19;47.96
41886;BME280;27567;43.084;25.616;2023-05-10T11:07:21;98595.47;;;19.90;64.50
41886;BME280;27567;43.084;25.616;2023-05-10T11:10:05;98603.31;;;18.97;76.54
41886;BME280;27567;43.084;25.616;2023-05-10T11:12:58;98591.56;;;18.40;78.16
41886;BME280;27567;43.084;25.616;2023-05-10T11:15:48;98607.59;;;18.76;78.40
41886;BME280;27567;43.084;25.616;2023-05-10T11:18:33;98606.19;;;18.05;83.70
41886;BME280;27567;43.084;25.616;2023-05-10T11:21:17;98603.50;;;17.64;92.35
41886;BME280;27567;43.084;25.616;2023-05-10T11:24:01;98596.13;;;18.06;85.79
41886;BME280;27567;43.084;25.616;2023-05-10T11:26:50;98594.25;;;18.74;81.59
41886;BME280;27567;43.084;25.616;2023-05-10T11:29:37;98603.31;;;18.46;74.25
41886;BME280;27567;43.084;25.616;2023-05-10T11:32:22;98595.91;;;18.41;63.32
41886;BME280;27567;43.084;25.616;2023-05-10T11:35:10;98592.84;;;18.55;61.07
41886;BME280;27567;43.084;25.616;2023-05-10T11:37:54;98586.38;;;19.34;56.96
41886;BME280;27567;43.084;25.616;2023-05-10T11:40:39;98592.63;;;18.73;61.52
41886;BME280;27567;43.084;25.616;2023-05-10T11:43:25;98594.41;;;19.46;57.62
41886;BME280;27567;43.084;25.616;2023-05-10T11:46:14;98592.34;;;19.53;56.68
41886;BME280;27567;43.084;25.616;2023-05-10T11:49:00;98588.59;;;18.59;64.42
41886;BME280;27567;43.084;25.616;2023-05-10T11:51:45;98584.69;;;18.89;67.00
41886;BME280;27567;43.084;25.616;2023-05-10T11:54:29;98591.19;;;19.05;70.32
41886;BME280;27567;43.084;25.616;2023-05-10T11:57:13;98587.25;;;20.12;61.11
41886;BME280;27567;43.084;25.616;2023-05-10T11:59:57;98579.31;;;19.83;64.02
41886;BME280;27567;43.084;25.616;2023-05-10T12:02:42;98573.94;;;23.36;45.97
41886;BME280;27567;43.084;25.616;2023-05-10T12:05:26;98564.16;;;27.22;36.23
41886;BME280;27567;43.084;25.616;2023-05-10T12:08:14;98562.13;;;28.70;32.17
41886;BME280;27567;43.084;25.616;2023-05-10T12:11:09;98561.47;;;28.64;31.81
41886;BME280;27567;43.084;25.616;2023-05-10T12:13:56;98563.09;;;28.65;32.11
41886;BME280;27567;43.084;25.616;2023-05-10T12:16:40;98575.16;;;27.22;33.65
41886;BME280;27567;43.084;25.616;2023-05-10T12:19:26;98572.25;;;23.95;38.21
41886;BME280;27567;43.084;25.616;2023-05-10T12:22:11;98568.66;;;22.27;43.79
41886;BME280;27567;43.084;25.616;2023-05-10T12:24:55;98573.53;;;21.15;50.68
41886;BME280;27567;43.084;25.616;2023-05-10T12:27:39;98571.94;;;22.45;45.92
41886;BME280;27567;43.084;25.616;2023-05-10T12:30:27;98566.00;;;21.38;49.88
41886;BME280;27567;43.084;25.616;2023-05-10T12:33:13;98565.13;;;20.03;55.90
41886;BME280;27567;43.084;25.616;2023-05-10T12:36:02;98572.59;;;18.97;66.85
41886;BME280;27567;43.084;25.616;2023-05-10T12:38:49;98562.66;;;19.52;65.37
41886;BME280;27567;43.084;25.616;2023-05-10T12:41:33;98562.19;;;18.37;74.24
41886;BME280;27567;43.084;25.616;2023-05-10T12:44:17;98559.22;;;17.47;82.33
41886;BME280;27567;43.084;25.616;2023-05-10T12:47:01;98560.41;;;16.50;90.95
41886;BME280;27567;43.084;25.616;2023-05-10T12:49:45;98555.97;;;16.56;93.07
41886;BME280;27567;43.084;25.616;2023-05-10T12:52:30;98553.19;;;17.27;88.88
41886;BME280;27567;43.084;25.616;2023-05-10T12:55:15;98554.66;;;16.71;93.07
41886;BME280;27567;43.084;25.616;2023-05-10T12:57:59;98543.09;;;16.63;93.09
41886;BME280;27567;43.084;25.616;2023-05-10T13:00:44;98550.28;;;16.22;98.20
41886;BME280;27567;43.084;25.616;2023-05-10T13:03:28;98548.03;;;16.19;100.00
41886;BME280;27567;43.084;25.616;2023-05-10T13:06:13;98544.63;;;16.00;100.00
41886;BME280;27567;43.084;25.616;2023-05-10T13:08:57;98541.22;;;16.16;100.00
41886;BME280;27567;43.084;25.616;2023-05-10T13:11:41;98539.34;;;16.29;100.00
41886;BME280;27567;43.084;25.616;2023-05-10T13:14:26;98541.25;;;16.40;100.00
41886;BME280;27567;43.084;25.616;2023-05-10T13:17:10;98535.09;;;16.21;100.00
41886;BME280;27567;43.084;25.616;2023-05-10T13:19:54;98533.94;;;16.29;100.00
41886;BME280;27567;43.084;25.616;2023-05-10T13:22:38;98544.38;;;15.71;100.00
41886;BME280;27567;43.084;25.616;2023-05-10T13:25:22;98545.28;;;15.34;100.00
41886;BME280;27567;43.084;25.616;2023-05-10T13:28:07;98545.38;;;15.27;100.00
41886;BME280;27567;43.084;25.616;2023-05-10T13:30:50;98546.22;;;15.09;100.00
41886;BME280;27567;43.084;25.616;2023-05-10T13:33:34;98535.50;;;15.02;100.00
41886;BME280;27567;43.084;25.616;2023-05-10T13:36:18;98535.56;;;14.77;100.00
41886;BME280;27567;43.084;25.616;2023-05-10T13:39:02;98540.50;;;14.99;100.00
41886;BME280;27567;43.084;25.616;2023-05-10T13:41:49;98534.38;;;15.10;100.00
41886;BME280;27567;43.084;25.616;2023-05-10T13:44:33;98530.84;;;14.91;100.00
41886;BME280;27567;43.084;25.616;2023-05-10T13:47:18;98534.59;;;14.71;100.00
41886;BME280;27567;43.084;25.616;2023-05-10T13:50:02;98535.72;;;14.57;100.00
41886;BME280;27567;43.084;25.616;2023-05-10T13:52:47;98533.78;;;14.64;100.00
41886;BME280;27567;43.084;25.616;2023-05-10T13:59:12;98541.41;;;14.49;100.00
41886;BME280;27567;43.084;25.616;2023-05-10T14:01:57;98530.88;;;14.66;100.00
41886;BME280;27567;43.084;25.616;2023-05-10T14:04:41;98531.72;;;14.85;100.00
41886;BME280;27567;43.084;25.616;2023-05-10T14:07:25;98531.97;;;15.02;100.00
41886;BME280;27567;43.084;25.616;2023-05-10T14:10:09;98525.53;;;15.33;100.00
41886;BME280;27567;43.084;25.616;2023-05-10T14:12:53;98529.94;;;15.46;100.00
41886;BME280;27567;43.084;25.616;2023-05-10T14:15:37;98528.78;;;16.27;100.00
41886;BME280;27567;43.084;25.616;2023-05-10T14:18:24;98511.00;;;16.67;100.00
41886;BME280;27567;43.084;25.616;2023-05-10T14:21:08;98512.75;;;16.97;100.00
41886;BME280;27567;43.084;25.616;2023-05-10T14:23:52;98507.28;;;18.13;86.77
41886;BME280;27567;43.084;25.616;2023-05-10T14:26:36;98510.84;;;19.14;77.31
41886;BME280;27567;43.084;25.616;2023-05-10T14:29:23;98505.69;;;21.19;62.55
41886;BME280;27567;43.084;25.616;2023-05-10T14:32:07;98512.41;;;20.52;62.43
41886;BME280;27567;43.084;25.616;2023-05-10T14:34:51;98512.94;;;18.68;75.04
41886;BME280;27567;43.084;25.616;2023-05-10T14:37:35;98513.44;;;18.42;79.86
41886;BME280;27567;43.084;25.616;2023-05-10T14:40:20;98507.91;;;18.37;81.57
41886;BME280;27567;43.084;25.616;2023-05-10T14:43:04;98510.78;;;17.79;83.86
41886;BME280;27567;43.084;25.616;2023-05-10T14:45:49;98516.84;;;17.40;88.75
41886;BME280;27567;43.084;25.616;2023-05-10T14:48:33;98504.41;;;18.20;81.56